Time;durP1;ratioP1;P1;durP2;ratioP2;P2;SDS_P1;SDS_P2;PMS_P1;PMS_P2;Temp;Humidity;BMP_temperature;BMP_pressure;BME280_temperature;BME280_humidity;BME280_pressure;Samples;Min_cycle;Max_cycle;Signal;HPM_P1;HPM_P2
2021/11/28 00:02:22;;;;;;;13.15;8.57;;;5.90;84.60;;;;;;4983087;28;20026;-92
2021/11/28 00:04:49;;;;;;;12.45;8.25;;;5.90;84.70;;;;;;4976439;28;20054;-92
2021/11/28 00:07:29;;;;;;;12.05;8.27;;;5.90;84.80;;;;;;4978996;28;20362;-88
2021/11/28 00:14:55;;;;;;;12.75;9.25;;;5.90;84.80;;;;;;4975821;28;20322;-92
2021/11/28 00:17:20;;;;;;;13.65;9.05;;;5.90;84.90;;;;;;4978461;28;20034;-91
2021/11/28 00:19:46;;;;;;;14.52;9.55;;;5.90;84.90;;;;;;4982259;28;20026;-92
2021/11/28 00:22:12;;;;;;;12.43;8.73;;;5.90;84.90;;;;;;4981350;28;20031;-91
2021/11/28 00:24:38;;;;;;;12.68;8.65;;;6.00;84.90;;;;;;4986280;28;20018;-93
2021/11/28 00:27:05;;;;;;;12.95;8.70;;;6.00;84.70;;;;;;4983476;28;20125;-89
2021/11/28 00:29:31;;;;;;;14.95;9.50;;;6.00;84.70;;;;;;4978100;28;20025;-90
2021/11/28 00:31:57;;;;;;;13.43;9.65;;;6.00;84.70;;;;;;4974146;28;20096;-90
2021/11/28 00:34:32;;;;;;;11.80;8.52;;;6.00;84.60;;;;;;4971696;28;20027;-92
2021/11/28 00:36:57;;;;;;;13.80;9.05;;;6.00;84.80;;;;;;4974096;28;20039;-92
2021/11/28 00:39:23;;;;;;;12.63;8.45;;;6.00;84.70;;;;;;4974853;28;20034;-88
2021/11/28 00:41:54;;;;;;;12.52;8.95;;;6.00;84.70;;;;;;4973476;28;20117;-85
2021/11/28 00:44:21;;;;;;;11.95;8.75;;;6.00;84.70;;;;;;4973611;28;20038;-86
2021/11/28 00:46:47;;;;;;;10.65;7.63;;;5.90;84.60;;;;;;4973378;28;20580;-88
2021/11/28 00:49:16;;;;;;;12.18;7.97;;;5.90;84.70;;;;;;4973903;28;20247;-88
2021/11/28 00:51:52;;;;;;;10.18;6.85;;;5.80;84.80;;;;;;4972756;28;20385;-89
2021/11/28 00:54:17;;;;;;;9.15;6.30;;;5.80;85.00;;;;;;4972571;28;20023;-89
2021/11/28 00:56:44;;;;;;;10.20;6.90;;;5.80;85.10;;;;;;4973764;28;20043;-91
2021/11/28 00:59:10;;;;;;;11.63;7.95;;;5.80;85.10;;;;;;4974908;28;20057;-90
2021/11/28 01:01:35;;;;;;;11.60;7.97;;;5.90;85.20;;;;;;4974171;28;20038;-93
2021/11/28 01:04:02;;;;;;;11.32;7.63;;;5.90;85.00;;;;;;4973933;28;20031;-86
2021/11/28 01:06:28;;;;;;;8.05;6.18;;;5.90;84.90;;;;;;4973059;28;20027;-87
2021/11/28 01:08:54;;;;;;;12.18;8.68;;;6.00;85.00;;;;;;4973452;28;20113;-87
2021/11/28 01:11:22;;;;;;;10.70;8.02;;;5.90;84.80;;;;;;4973562;28;20030;-86
2021/11/28 01:13:48;;;;;;;11.50;7.97;;;5.90;84.80;;;;;;4972163;28;20027;-89
2021/11/28 01:16:13;;;;;;;10.75;8.40;;;5.90;84.90;;;;;;4973947;28;20047;-88
2021/11/28 01:18:39;;;;;;;12.45;8.63;;;5.90;85.00;;;;;;4973414;28;20018;-88
2021/11/28 01:21:05;;;;;;;14.95;8.43;;;5.90;85.10;;;;;;4973772;28;20039;-89
2021/11/28 01:23:31;;;;;;;11.15;8.30;;;6.00;85.10;;;;;;4973837;28;20113;-89
2021/11/28 01:25:57;;;;;;;10.05;7.47;;;6.00;85.00;;;;;;4973346;28;20115;-89
2021/11/28 01:28:22;;;;;;;11.75;8.15;;;6.00;84.80;;;;;;4974277;28;20038;-89
2021/11/28 01:30:48;;;;;;;12.07;8.05;;;6.00;84.70;;;;;;4973275;28;20027;-92
2021/11/28 01:33:14;;;;;;;11.02;7.35;;;6.10;84.70;;;;;;4974712;28;20513;-92
2021/11/28 01:35:39;;;;;;;10.43;7.78;;;6.10;84.60;;;;;;4974347;28;20031;-92
2021/11/28 01:38:05;;;;;;;11.52;8.15;;;6.10;84.60;;;;;;4974706;28;20018;-92
2021/11/28 01:40:31;;;;;;;11.98;8.18;;;6.10;84.50;;;;;;4974121;28;20030;-90
2021/11/28 01:43:08;;;;;;;11.23;8.13;;;6.10;84.40;;;;;;4974542;28;20041;-92
2021/11/28 01:45:35;;;;;;;10.10;8.00;;;6.10;84.40;;;;;;4973935;28;20035;-92
2021/11/28 01:48:05;;;;;;;10.95;7.25;;;6.10;84.30;;;;;;4973356;28;20018;-92
2021/11/28 01:50:32;;;;;;;13.43;8.57;;;6.10;84.50;;;;;;4965323;28;20675;-91
2021/11/28 01:53:02;;;;;;;11.75;8.05;;;6.10;84.60;;;;;;4972194;28;20025;-89
2021/11/28 01:55:31;;;;;;;11.55;7.97;;;6.10;84.50;;;;;;4971568;28;20093;-89
2021/11/28 01:57:58;;;;;;;11.55;8.07;;;6.00;84.50;;;;;;4972577;28;20494;-89
2021/11/28 02:00:29;;;;;;;12.15;8.40;;;6.10;84.60;;;;;;4971864;28;20053;-91
2021/11/28 02:02:57;;;;;;;10.77;7.70;;;6.00;84.50;;;;;;4973920;28;20409;-91
2021/11/28 02:05:23;;;;;;;11.15;8.30;;;6.00;84.70;;;;;;4972642;28;20090;-89
2021/11/28 02:07:50;;;;;;;11.77;8.32;;;6.10;84.70;;;;;;4973306;28;20035;-91
2021/11/28 02:10:16;;;;;;;13.13;8.32;;;6.00;84.60;;;;;;4973742;28;20085;-92
2021/11/28 02:12:44;;;;;;;10.95;7.90;;;6.00;85.20;;;;;;4973294;28;20493;-95
2021/11/28 02:15:11;;;;;;;12.00;8.80;;;6.00;84.50;;;;;;4973106;28;20038;-91
2021/11/28 02:17:37;;;;;;;11.02;8.07;;;6.10;84.50;;;;;;4972414;28;20042;-91
2021/11/28 02:20:05;;;;;;;12.82;8.77;;;6.10;84.40;;;;;;4972628;28;20026;-90
2021/11/28 02:22:31;;;;;;;8.68;6.43;;;6.10;84.40;;;;;;4972728;28;20042;-90
2021/11/28 02:24:56;;;;;;;14.32;9.88;;;6.10;84.30;;;;;;4972275;28;20038;-90
2021/11/28 02:27:22;;;;;;;12.63;8.38;;;6.00;84.30;;;;;;4972078;28;20378;-87
2021/11/28 02:29:47;;;;;;;10.18;7.43;;;5.90;84.40;;;;;;4974346;28;20054;-92
2021/11/28 02:32:13;;;;;;;12.25;9.20;;;5.90;84.60;;;;;;4974516;28;20027;-93
2021/11/28 02:34:39;;;;;;;13.50;9.00;;;5.80;84.70;;;;;;4973645;28;20030;-94
2021/11/28 02:37:05;;;;;;;15.50;10.73;;;5.80;84.70;;;;;;4972667;28;20551;-89
2021/11/28 02:39:33;;;;;;;12.63;8.77;;;5.70;84.80;;;;;;4970753;28;20023;-89
2021/11/28 02:41:59;;;;;;;8.07;5.88;;;5.70;85.60;;;;;;4972231;28;20114;-88
2021/11/28 02:44:24;;;;;;;12.82;8.65;;;5.70;85.20;;;;;;4973684;28;20058;-88
2021/11/28 02:46:50;;;;;;;13.93;9.63;;;5.70;85.10;;;;;;4971397;28;20026;-87
2021/11/28 02:49:16;;;;;;;12.65;8.88;;;5.70;85.20;;;;;;4971812;28;20034;-86
2021/11/28 02:51:42;;;;;;;12.75;8.48;;;5.70;85.20;;;;;;4970372;28;20598;-87
2021/11/28 02:54:08;;;;;;;12.05;7.93;;;5.80;85.20;;;;;;4966726;28;20046;-86
2021/11/28 02:56:34;;;;;;;12.48;8.85;;;5.80;85.10;;;;;;4969491;28;20094;-86
2021/11/28 02:59:02;;;;;;;13.35;9.27;;;5.80;85.00;;;;;;4969479;28;20038;-88
2021/11/28 03:01:28;;;;;;;12.40;8.93;;;5.80;84.90;;;;;;4971407;28;20157;-90
2021/11/28 03:03:53;;;;;;;10.65;6.75;;;5.80;84.80;;;;;;4972678;28;20106;-91
2021/11/28 03:06:19;;;;;;;11.77;8.57;;;5.90;84.80;;;;;;4972353;28;20034;-90
2021/11/28 03:08:46;;;;;;;11.73;7.78;;;5.90;84.80;;;;;;4970139;28;20023;-89
2021/11/28 03:11:14;;;;;;;12.70;8.88;;;5.80;84.70;;;;;;4969204;28;20774;-89
2021/11/28 03:13:44;;;;;;;12.00;8.10;;;5.80;84.80;;;;;;4970559;28;20478;-91
2021/11/28 03:16:12;;;;;;;14.93;10.40;;;5.70;84.80;;;;;;4971199;28;20035;-91
2021/11/28 03:18:38;;;;;;;11.30;8.02;;;5.70;84.90;;;;;;4970589;28;20018;-88
2021/11/28 03:21:11;;;;;;;12.50;8.32;;;5.60;85.00;;;;;;4971353;28;20097;-89
2021/11/28 03:23:39;;;;;;;13.15;8.52;;;5.60;85.20;;;;;;4958150;28;20031;-89
2021/11/28 03:26:14;;;;;;;12.40;8.43;;;5.60;85.30;;;;;;4970959;28;20078;-88
2021/11/28 03:28:47;;;;;;;13.50;9.05;;;5.60;85.90;;;;;;4971232;28;20125;-88
2021/11/28 03:31:13;;;;;;;12.77;8.20;;;5.50;85.10;;;;;;4975784;28;20022;-90
2021/11/28 03:33:40;;;;;;;11.68;7.70;;;5.60;85.30;;;;;;4971908;28;20049;-91
2021/11/28 03:36:07;;;;;;;17.90;8.73;;;5.60;85.40;;;;;;4971595;28;20034;-94
2021/11/28 03:38:34;;;;;;;13.05;8.00;;;5.60;85.30;;;;;;4972420;28;20033;-88
2021/11/28 03:41:00;;;;;;;13.60;8.73;;;5.60;85.30;;;;;;4970608;28;20544;-88
2021/11/28 03:43:26;;;;;;;11.52;7.55;;;5.60;85.30;;;;;;4971167;28;20023;-88
2021/11/28 03:45:51;;;;;;;11.38;7.85;;;5.60;85.20;;;;;;4970171;28;20045;-87
2021/11/28 03:48:17;;;;;;;13.77;8.77;;;5.60;85.20;;;;;;4970953;28;20076;-87
2021/11/28 03:50:43;;;;;;;14.50;8.52;;;5.60;85.10;;;;;;4970695;28;20409;-88
2021/11/28 03:53:08;;;;;;;14.48;9.05;;;5.60;85.10;;;;;;4970637;28;20027;-87
2021/11/28 03:55:34;;;;;;;11.00;7.07;;;5.70;85.10;;;;;;4971002;28;20046;-93
2021/11/28 03:58:00;;;;;;;13.48;8.82;;;5.60;85.10;;;;;;4970923;28;20026;-91
2021/11/28 04:00:26;;;;;;;14.63;8.85;;;5.70;85.20;;;;;;4970603;28;20011;-91
2021/11/28 04:02:51;;;;;;;12.32;7.97;;;5.70;85.10;;;;;;4971555;28;20378;-88
2021/11/28 04:05:17;;;;;;;11.82;8.07;;;5.70;85.10;;;;;;4968818;28;20041;-89
2021/11/28 04:07:42;;;;;;;9.93;6.47;;;5.70;85.10;;;;;;4971727;28;20023;-89
2021/11/28 04:10:09;;;;;;;13.85;8.18;;;5.80;85.10;;;;;;4970740;28;20029;-89
2021/11/28 04:12:35;;;;;;;15.40;9.48;;;5.80;85.20;;;;;;4972576;28;20378;-89
2021/11/28 04:15:00;;;;;;;14.48;8.88;;;5.80;85.10;;;;;;4974203;28;20046;-87
2021/11/28 04:17:28;;;;;;;12.73;8.25;;;5.90;85.10;;;;;;4974719;28;20374;-90
2021/11/28 04:19:54;;;;;;;12.75;8.05;;;5.90;85.00;;;;;;4974138;28;20023;-90
2021/11/28 04:22:20;;;;;;;12.63;8.43;;;5.90;85.00;;;;;;4975323;28;20377;-89
2021/11/28 04:24:47;;;;;;;13.32;8.80;;;5.90;85.00;;;;;;4973940;28;20384;-89
2021/11/28 04:27:13;;;;;;;12.63;7.32;;;5.90;85.00;;;;;;4974800;28;20034;-88
2021/11/28 04:29:38;;;;;;;12.85;8.85;;;5.90;85.00;;;;;;4974129;28;20085;-88
2021/11/28 04:32:04;;;;;;;13.65;9.07;;;5.90;85.00;;;;;;4974675;28;20030;-88
2021/11/28 04:34:30;;;;;;;11.52;7.68;;;5.90;85.00;;;;;;4973822;28;20030;-88
2021/11/28 04:36:56;;;;;;;12.82;8.60;;;5.90;85.00;;;;;;4974610;28;20027;-88
2021/11/28 04:39:21;;;;;;;14.45;9.13;;;5.90;85.00;;;;;;4974437;28;20065;-88
2021/11/28 04:41:47;;;;;;;13.50;8.43;;;6.00;85.00;;;;;;4973442;28;20033;-92
2021/11/28 04:44:13;;;;;;;11.77;8.27;;;6.00;85.00;;;;;;4974852;28;20034;-93
2021/11/28 04:46:40;;;;;;;13.30;8.13;;;6.00;84.90;;;;;;4975125;28;20030;-93
2021/11/28 04:49:06;;;;;;;13.45;8.07;;;6.00;84.90;;;;;;4974596;28;20046;-88
2021/11/28 04:51:31;;;;;;;14.55;8.95;;;6.00;84.90;;;;;;4971582;28;20019;-88
2021/11/28 04:53:58;;;;;;;13.77;8.90;;;6.00;84.90;;;;;;4974330;28;20503;-87
2021/11/28 04:56:25;;;;;;;12.65;8.18;;;6.00;84.90;;;;;;4974169;28;20041;-89
2021/11/28 04:58:50;;;;;;;13.70;9.10;;;6.00;84.90;;;;;;4974185;28;20102;-87
2021/11/28 05:01:16;;;;;;;11.77;7.68;;;6.00;84.90;;;;;;4974226;28;20457;-89
2021/11/28 05:03:41;;;;;;;14.50;9.48;;;6.00;84.80;;;;;;4974378;28;20114;-89
2021/11/28 05:06:07;;;;;;;13.30;9.32;;;6.00;84.70;;;;;;4973173;28;20027;-88
2021/11/28 05:08:32;;;;;;;13.38;8.43;;;6.00;84.70;;;;;;4973647;28;20022;-88
2021/11/28 05:10:58;;;;;;;14.20;9.25;;;6.00;84.70;;;;;;4972606;28;20057;-88
2021/11/28 05:13:23;;;;;;;15.07;9.10;;;6.00;84.70;;;;;;4974126;28;20382;-89
2021/11/28 05:15:49;;;;;;;12.48;8.30;;;6.00;84.60;;;;;;4973398;28;20046;-88
2021/11/28 05:18:14;;;;;;;14.32;9.00;;;6.00;84.60;;;;;;4973092;28;20106;-89
2021/11/28 05:20:40;;;;;;;14.82;9.05;;;6.00;84.70;;;;;;4974554;28;20031;-91
2021/11/28 05:23:06;;;;;;;13.18;8.50;;;6.00;84.70;;;;;;4973764;28;20030;-92
2021/11/28 05:25:31;;;;;;;13.60;8.68;;;6.00;84.70;;;;;;4972303;28;20433;-93
2021/11/28 05:27:57;;;;;;;14.13;8.73;;;6.00;84.70;;;;;;4973587;28;20027;-92
2021/11/28 05:30:22;;;;;;;13.80;9.13;;;6.00;84.70;;;;;;4973622;28;20022;-89
2021/11/28 05:32:48;;;;;;;13.77;8.77;;;6.00;85.00;;;;;;4974064;28;20035;-92
2021/11/28 05:35:13;;;;;;;13.05;8.98;;;6.00;84.70;;;;;;4972749;28;20074;-92
2021/11/28 05:37:39;;;;;;;13.85;8.63;;;6.00;84.70;;;;;;4974403;28;20154;-92
2021/11/28 05:40:05;;;;;;;14.63;9.20;;;5.90;84.60;;;;;;4974546;28;20047;-92
2021/11/28 05:42:31;;;;;;;13.65;8.90;;;5.90;84.60;;;;;;4973997;28;20035;-90
2021/11/28 05:44:56;;;;;;;13.95;9.23;;;5.90;84.60;;;;;;4972631;28;20038;-92
2021/11/28 05:47:22;;;;;;;14.15;9.43;;;5.80;84.50;;;;;;4974279;28;20027;-92
2021/11/28 05:49:48;;;;;;;12.77;8.25;;;5.80;84.50;;;;;;4973168;28;20058;-92
2021/11/28 05:52:13;;;;;;;14.80;9.52;;;5.80;84.60;;;;;;4972848;28;20022;-91
2021/11/28 05:54:39;;;;;;;14.15;9.00;;;5.80;84.60;;;;;;4972499;28;20031;-92
2021/11/28 05:57:04;;;;;;;13.93;8.80;;;5.80;84.50;;;;;;4974436;28;20565;-92
2021/11/28 05:59:30;;;;;;;14.07;9.00;;;5.80;84.50;;;;;;4973844;28;20050;-92
2021/11/28 06:01:56;;;;;;;14.45;9.00;;;5.80;84.50;;;;;;4974330;28;20023;-93
2021/11/28 06:04:22;;;;;;;13.25;8.07;;;5.70;84.50;;;;;;4973543;28;20077;-93
2021/11/28 06:06:48;;;;;;;14.13;8.55;;;5.70;84.60;;;;;;4972792;28;20503;-93
2021/11/28 06:09:13;;;;;;;15.38;9.77;;;5.70;84.60;;;;;;4974019;28;20384;-93
2021/11/28 06:11:39;;;;;;;14.45;8.98;;;5.70;84.60;;;;;;4974136;28;20118;-92
2021/11/28 06:14:05;;;;;;;17.92;10.07;;;5.70;84.70;;;;;;4972637;28;20110;-89
2021/11/28 06:16:31;;;;;;;14.13;9.10;;;5.70;84.60;;;;;;4970906;28;20121;-88
2021/11/28 06:18:56;;;;;;;15.88;9.90;;;5.70;84.60;;;;;;4971242;28;20034;-89
2021/11/28 06:21:22;;;;;;;14.05;8.90;;;5.60;84.60;;;;;;4972665;28;20026;-88
2021/11/28 06:23:48;;;;;;;14.70;9.45;;;5.60;84.50;;;;;;4972646;28;20106;-89
2021/11/28 06:26:13;;;;;;;17.95;9.45;;;5.60;84.50;;;;;;4970912;28;20066;-89
2021/11/28 06:28:39;;;;;;;14.52;8.98;;;5.60;84.40;;;;;;4972311;28;20035;-89
2021/11/28 06:31:05;;;;;;;13.85;8.80;;;5.60;84.40;;;;;;4971124;28;20026;-90
2021/11/28 06:33:30;;;;;;;15.15;9.25;;;5.60;84.40;;;;;;4972764;28;20023;-90
2021/11/28 06:35:56;;;;;;;14.73;9.60;;;5.50;84.40;;;;;;4971471;28;20073;-90
2021/11/28 06:38:22;;;;;;;15.98;10.45;;;5.50;84.60;;;;;;4973480;28;20023;-90
2021/11/28 06:40:47;;;;;;;16.17;9.65;;;5.50;84.60;;;;;;4972293;28;20075;-92
2021/11/28 06:43:13;;;;;;;16.48;10.63;;;5.50;84.50;;;;;;4971795;28;20034;-89
2021/11/28 06:45:39;;;;;;;15.73;9.63;;;5.40;84.40;;;;;;4970980;28;20413;-89
2021/11/28 06:48:05;;;;;;;62.60;10.50;;;5.50;84.40;;;;;;4971310;28;20026;-90
2021/11/28 06:50:31;;;;;;;26.85;8.82;;;5.40;84.30;;;;;;4970178;28;20042;-89
2021/11/28 06:52:56;;;;;;;53.45;8.60;;;5.30;84.40;;;;;;4971455;28;20027;-88
2021/11/28 06:55:22;;;;;;;44.55;8.65;;;5.30;84.50;;;;;;4969846;28;20092;-88
2021/11/28 06:57:47;;;;;;;40.20;7.90;;;5.20;84.50;;;;;;4971682;28;20023;-88
2021/11/28 07:00:13;;;;;;;19.15;7.05;;;5.20;84.60;;;;;;4971595;28;20031;-89
2021/11/28 07:02:39;;;;;;;50.45;8.27;;;5.10;84.70;;;;;;4971810;28;20031;-89
2021/11/28 07:05:05;;;;;;;20.20;6.40;;;5.00;84.60;;;;;;4970860;28;20031;-88
2021/11/28 07:07:30;;;;;;;31.48;7.50;;;5.00;84.80;;;;;;4971663;28;20041;-87
2021/11/28 07:09:56;;;;;;;24.63;7.32;;;5.00;84.90;;;;;;4970916;28;20037;-88
2021/11/28 07:12:22;;;;;;;41.92;9.13;;;4.90;84.80;;;;;;4971812;28;20031;-88
2021/11/28 07:14:50;;;;;;;44.63;8.10;;;4.90;84.90;;;;;;4971077;28;20093;-86
2021/11/28 07:17:16;;;;;;;17.38;7.15;;;4.80;84.90;;;;;;4969763;28;20093;-86
2021/11/28 07:19:41;;;;;;;13.30;6.70;;;4.80;85.00;;;;;;4970808;28;20023;-86
2021/11/28 07:22:07;;;;;;;17.75;7.18;;;4.80;85.00;;;;;;4969691;28;20093;-87
2021/11/28 07:24:33;;;;;;;28.65;7.93;;;4.80;85.00;;;;;;4969838;28;20486;-88
2021/11/28 07:26:58;;;;;;;72.15;9.15;;;4.80;85.00;;;;;;4974352;28;20105;-88
2021/11/28 07:29:24;;;;;;;29.88;8.93;;;4.80;85.00;;;;;;4972607;28;20421;-85
2021/11/28 07:31:49;;;;;;;23.27;7.57;;;4.80;85.10;;;;;;4970841;28;20015;-87
2021/11/28 07:34:15;;;;;;;20.63;7.35;;;4.80;85.20;;;;;;4971529;28;20038;-88
2021/11/28 07:36:41;;;;;;;17.75;7.20;;;4.70;85.10;;;;;;4970891;28;20081;-88
2021/11/28 07:39:07;;;;;;;20.70;7.90;;;4.70;85.20;;;;;;4967242;28;20025;-88
2021/11/28 07:41:34;;;;;;;15.65;7.28;;;4.70;85.10;;;;;;4970858;28;20036;-85
2021/11/28 07:44:00;;;;;;;14.63;7.75;;;4.70;85.10;;;;;;4971183;28;20299;-87
2021/11/28 07:46:26;;;;;;;9.82;5.32;;;4.70;85.20;;;;;;4968901;28;20101;-87
2021/11/28 07:48:51;;;;;;;19.63;7.38;;;4.60;85.20;;;;;;4970159;28;20078;-86
2021/11/28 07:51:17;;;;;;;15.77;6.68;;;4.50;85.10;;;;;;4969662;28;20026;-86
2021/11/28 07:53:46;;;;;;;18.77;7.75;;;4.50;85.20;;;;;;4969695;28;20127;-87
2021/11/28 07:56:11;;;;;;;14.95;7.20;;;4.40;85.20;;;;;;4967817;28;20035;-85
2021/11/28 07:58:37;;;;;;;11.63;5.80;;;4.40;85.40;;;;;;4970652;28;20173;-88
2021/11/28 08:01:03;;;;;;;15.82;6.65;;;4.50;85.50;;;;;;4966962;28;20038;-87
2021/11/28 08:03:28;;;;;;;17.65;7.75;;;4.40;85.30;;;;;;4960044;28;20035;-87
2021/11/28 08:05:58;;;;;;;16.77;6.97;;;4.40;85.30;;;;;;4965857;28;20042;-84
2021/11/28 08:08:24;;;;;;;13.70;6.80;;;4.40;85.40;;;;;;4966800;28;20015;-86
2021/11/28 08:10:50;;;;;;;24.58;7.28;;;4.40;85.50;;;;;;4971547;28;20037;-86
2021/11/28 08:13:16;;;;;;;17.95;7.55;;;4.40;85.50;;;;;;4970864;28;20035;-85
2021/11/28 08:15:41;;;;;;;20.58;6.75;;;4.40;85.50;;;;;;4970434;28;20045;-86
2021/11/28 08:18:07;;;;;;;13.73;6.70;;;4.40;85.50;;;;;;4972313;28;20073;-84
2021/11/28 08:20:33;;;;;;;12.80;6.05;;;4.40;85.50;;;;;;4969540;28;20035;-85
2021/11/28 08:23:00;;;;;;;15.02;6.95;;;4.40;85.60;;;;;;4969406;28;20059;-85
2021/11/28 08:25:25;;;;;;;18.17;7.85;;;4.40;85.40;;;;;;4995959;28;20122;-85
2021/11/28 08:27:51;;;;;;;24.35;6.40;;;4.40;85.30;;;;;;4972646;28;20114;-85
2021/11/28 08:30:17;;;;;;;12.18;7.03;;;4.40;85.30;;;;;;4973122;28;20026;-85
2021/11/28 08:32:44;;;;;;;15.60;7.20;;;4.40;85.20;;;;;;4973226;28;20030;-83
2021/11/28 08:35:11;;;;;;;16.73;7.30;;;4.50;85.30;;;;;;4976845;28;20482;-85
2021/11/28 08:37:37;;;;;;;12.35;7.03;;;4.50;85.20;;;;;;4975908;28;20019;-87
2021/11/28 08:40:05;;;;;;;26.67;7.30;;;4.50;85.10;;;;;;4961587;28;20027;-85
2021/11/28 08:42:33;;;;;;;21.70;6.22;;;4.50;85.10;;;;;;4963384;28;20474;-84
2021/11/28 08:45:00;;;;;;;13.65;6.53;;;4.50;85.10;;;;;;4963289;28;20054;-85
2021/11/28 08:47:26;;;;;;;12.52;6.88;;;4.40;85.10;;;;;;4968483;28;20074;-85
2021/11/28 08:49:52;;;;;;;13.10;5.20;;;4.50;85.30;;;;;;4960404;28;20064;-85
2021/11/28 08:52:17;;;;;;;23.20;6.55;;;4.50;85.10;;;;;;4960243;28;20031;-85
2021/11/28 08:54:43;;;;;;;17.40;6.63;;;4.40;85.10;;;;;;4957519;28;20022;-85
2021/11/28 08:57:08;;;;;;;22.90;6.38;;;4.40;85.10;;;;;;4961589;28;20549;-84
2021/11/28 08:59:34;;;;;;;45.63;6.25;;;4.40;85.30;;;;;;4966777;28;20122;-85
2021/11/28 09:02:00;;;;;;;15.25;6.25;;;4.40;85.20;;;;;;4972108;28;20026;-84
2021/11/28 09:04:26;;;;;;;11.52;6.47;;;4.40;85.20;;;;;;4973097;28;20106;-84
2021/11/28 09:06:51;;;;;;;13.70;4.82;;;4.50;85.20;;;;;;4973177;28;20038;-84
2021/11/28 09:09:17;;;;;;;27.73;5.80;;;4.50;85.70;;;;;;4972853;28;20463;-84
2021/11/28 09:11:43;;;;;;;13.57;5.72;;;4.50;85.20;;;;;;4972549;28;20652;-84
2021/11/28 09:14:09;;;;;;;11.65;5.55;;;4.50;85.30;;;;;;4964007;28;20036;-84
2021/11/28 09:16:34;;;;;;;10.73;5.85;;;4.60;85.40;;;;;;4971221;28;20039;-84
2021/11/28 09:19:08;;;;;;;14.05;7.38;;;4.60;85.30;;;;;;4964455;28;20371;-84
2021/11/28 09:21:33;;;;;;;9.32;5.97;;;4.60;85.30;;;;;;4966598;28;20098;-84
2021/11/28 09:26:44;;;;;;;11.10;5.63;;;4.70;85.10;;;;;;4968441;28;20437;-83
2021/11/28 09:29:10;;;;;;;11.40;6.50;;;4.80;85.20;;;;;;4966278;28;20445;-84
2021/11/28 09:31:37;;;;;;;12.10;6.95;;;4.80;85.30;;;;;;4969508;28;20019;-85
2021/11/28 09:34:03;;;;;;;9.90;6.25;;;4.80;85.20;;;;;;4968793;28;20386;-84
2021/11/28 09:36:31;;;;;;;12.60;7.25;;;4.90;85.30;;;;;;4972545;28;20489;-84
2021/11/28 09:38:58;;;;;;;11.48;6.78;;;5.00;85.20;;;;;;4970871;28;20038;-84
2021/11/28 09:41:25;;;;;;;12.00;7.35;;;5.10;85.20;;;;;;4971090;28;20031;-86
2021/11/28 09:43:54;;;;;;;11.95;7.32;;;5.10;85.20;;;;;;4964977;28;20053;-85
2021/11/28 09:46:25;;;;;;;11.25;6.90;;;5.20;85.10;;;;;;4964605;28;20031;-85
2021/11/28 09:48:59;;;;;;;11.63;6.80;;;5.30;85.00;;;;;;4964026;28;20497;-85
2021/11/28 09:51:29;;;;;;;10.50;6.63;;;5.30;84.90;;;;;;4971223;28;20034;-84
2021/11/28 09:53:56;;;;;;;10.15;6.30;;;5.40;84.80;;;;;;4968584;28;20485;-84
2021/11/28 09:56:23;;;;;;;10.68;6.25;;;5.40;84.80;;;;;;4963433;28;20512;-86
2021/11/28 09:58:50;;;;;;;10.13;6.22;;;5.50;84.80;;;;;;4960229;28;20122;-86
2021/11/28 10:01:16;;;;;;;10.27;6.63;;;5.60;84.70;;;;;;4969840;28;20015;-85
2021/11/28 10:03:42;;;;;;;10.13;6.35;;;5.70;84.70;;;;;;4970617;28;20019;-84
2021/11/28 10:06:11;;;;;;;10.77;6.80;;;5.60;84.60;;;;;;4969003;28;20588;-84
2021/11/28 10:08:40;;;;;;;10.60;6.28;;;5.70;84.60;;;;;;4959327;28;20028;-83
2021/11/28 10:11:43;;;;;;;11.30;6.75;;;5.70;84.50;;;;;;4968806;28;20109;-86
2021/11/28 10:14:11;;;;;;;;;;;5.70;84.60;;;;;;4971123;28;20123;-91
2021/11/28 10:16:37;;;;;;;9.85;5.97;;;5.70;84.50;;;;;;4968146;28;19925;-93
2021/11/28 10:19:05;;;;;;;9.32;5.53;;;5.70;84.60;;;;;;4975531;28;20046;-92
2021/11/28 10:21:33;;;;;;;11.10;6.65;;;5.70;84.60;;;;;;4974514;28;20023;-91
2021/11/28 10:24:09;;;;;;;11.05;6.47;;;5.70;84.60;;;;;;4977799;28;20028;-91
2021/11/28 10:26:50;;;;;;;11.70;7.10;;;5.70;84.70;;;;;;4987218;28;20042;-91
2021/11/28 10:29:20;;;;;;;10.40;6.70;;;5.80;84.80;;;;;;4979535;28;20054;-92
2021/11/28 10:31:48;;;;;;;10.93;6.95;;;5.80;84.80;;;;;;4982984;28;20091;-91
2021/11/28 10:34:15;;;;;;;10.88;7.13;;;5.90;84.70;;;;;;4984096;28;20054;-90
2021/11/28 10:36:40;;;;;;;10.77;7.03;;;5.90;84.70;;;;;;4988154;28;20037;-91
2021/11/28 10:39:14;;;;;;;12.13;7.47;;;5.90;84.70;;;;;;4985523;28;20019;-92
2021/11/28 10:41:49;;;;;;;11.48;6.97;;;5.90;84.60;;;;;;4975405;28;20023;-90
2021/11/28 10:44:15;;;;;;;12.20;7.53;;;6.00;84.70;;;;;;4977231;28;20035;-92
2021/11/28 10:46:41;;;;;;;11.13;7.15;;;6.00;84.60;;;;;;4972127;28;20031;-93
2021/11/28 10:49:09;;;;;;;11.02;7.32;;;6.00;84.60;;;;;;4975997;28;20492;-91
2021/11/28 10:51:40;;;;;;;12.65;7.68;;;6.10;84.70;;;;;;4971688;28;20039;-91
2021/11/28 10:54:27;;;;;;;11.77;7.55;;;6.10;84.70;;;;;;4974441;28;20241;-91
2021/11/28 10:57:14;;;;;;;12.32;6.90;;;6.10;84.70;;;;;;4981363;28;20053;-92
2021/11/28 10:59:55;;;;;;;12.43;7.35;;;6.10;84.70;;;;;;4976982;28;20166;-92
2021/11/28 11:02:24;;;;;;;12.38;7.80;;;6.10;84.60;;;;;;4988840;28;20030;-91
2021/11/28 11:04:54;;;;;;;13.18;8.02;;;6.10;84.60;;;;;;4996606;28;20516;-91
2021/11/28 11:07:22;;;;;;;12.98;7.40;;;6.20;84.70;;;;;;4996090;28;20077;-91
2021/11/28 11:09:50;;;;;;;14.27;8.15;;;6.20;84.60;;;;;;4986445;28;20019;-92
2021/11/28 11:12:17;;;;;;;12.00;8.13;;;6.30;84.70;;;;;;4968816;28;20035;-90
2021/11/28 11:14:43;;;;;;;12.15;8.00;;;6.30;84.60;;;;;;4978074;28;20031;-93
2021/11/28 11:17:11;;;;;;;12.57;8.27;;;6.30;84.60;;;;;;4971759;28;20029;-91
2021/11/28 11:19:44;;;;;;;13.73;8.20;;;6.30;84.60;;;;;;4977935;28;20039;-91
2021/11/28 11:22:26;;;;;;;14.02;8.13;;;6.30;84.60;;;;;;4978153;28;20018;-90
2021/11/28 11:24:59;;;;;;;10.50;6.63;;;6.30;84.70;;;;;;4981981;28;20030;-92
2021/11/28 11:27:34;;;;;;;10.80;6.63;;;6.30;84.60;;;;;;4984448;28;20041;-88
2021/11/28 11:30:17;;;;;;;10.57;6.47;;;6.30;84.60;;;;;;4973899;28;20074;-88
2021/11/28 11:32:54;;;;;;;11.77;7.65;;;6.30;84.60;;;;;;4987213;28;20019;-92
2021/11/28 11:35:25;;;;;;;11.35;6.88;;;6.30;85.00;;;;;;4982102;28;20073;-91
2021/11/28 11:37:53;;;;;;;10.60;6.72;;;6.30;84.70;;;;;;4981151;28;20477;-90
2021/11/28 11:40:21;;;;;;;9.18;6.15;;;6.30;85.30;;;;;;4975517;28;20042;-92
2021/11/28 11:42:48;;;;;;;11.60;7.28;;;6.30;84.70;;;;;;4971069;28;20500;-92
2021/11/28 11:45:17;;;;;;;11.10;6.80;;;6.30;84.70;;;;;;4969583;28;20030;-91
2021/11/28 11:47:44;;;;;;;10.65;6.82;;;6.40;84.70;;;;;;4968384;28;20019;-91
2021/11/28 11:50:13;;;;;;;10.18;6.85;;;6.40;84.70;;;;;;4967220;28;20079;-92
2021/11/28 11:52:39;;;;;;;17.08;9.25;;;6.40;84.60;;;;;;4967726;28;20065;-91
2021/11/28 11:55:14;;;;;;;12.63;7.93;;;6.40;84.60;;;;;;4967082;28;20039;-91
2021/11/28 11:58:15;;;;;;;11.93;7.35;;;6.50;84.70;;;;;;4970152;28;20026;-92
2021/11/28 12:01:15;;;;;;;11.10;7.28;;;6.50;84.60;;;;;;4964148;28;20501;-90
2021/11/28 12:03:51;;;;;;;8.07;5.40;;;6.50;84.50;;;;;;4959502;28;20497;-91
2021/11/28 12:06:16;;;;;;;9.63;5.55;;;6.60;84.60;;;;;;4969922;28;20027;-91
2021/11/28 12:08:54;;;;;;;8.27;5.53;;;6.50;84.50;;;;;;4970628;28;20022;-91
2021/11/28 12:11:22;;;;;;;7.45;5.10;;;6.60;84.60;;;;;;4971837;28;20031;-89
2021/11/28 12:13:53;;;;;;;6.57;4.38;;;6.60;84.60;;;;;;4973026;28;20018;-91
2021/11/28 12:16:21;;;;;;;6.40;4.20;;;6.60;84.60;;;;;;4970682;28;20045;-93
2021/11/28 12:18:49;;;;;;;6.90;4.90;;;6.60;84.60;;;;;;4966908;28;20082;-91
2021/11/28 12:21:17;;;;;;;7.97;5.30;;;6.70;84.60;;;;;;4963367;28;20031;-91
2021/11/28 12:23:43;;;;;;;8.20;5.78;;;6.70;84.60;;;;;;4972346;28;20030;-90
2021/11/28 12:26:31;;;;;;;10.13;6.47;;;6.70;84.40;;;;;;4972446;28;20517;-91
2021/11/28 12:29:21;;;;;;;9.27;6.18;;;6.70;84.50;;;;;;4996598;28;20051;-90
2021/11/28 12:31:49;;;;;;;5.95;4.07;;;6.80;84.50;;;;;;4965516;28;20119;-90
2021/11/28 12:34:19;;;;;;;8.63;5.18;;;6.80;84.50;;;;;;4973894;28;20069;-91
2021/11/28 12:36:50;;;;;;;10.40;6.80;;;6.80;84.50;;;;;;4959608;28;20387;-92
2021/11/28 12:39:16;;;;;;;9.27;5.63;;;6.80;84.40;;;;;;4971076;28;20034;-92
2021/11/28 12:41:51;;;;;;;8.40;5.50;;;6.80;84.50;;;;;;4976314;28;20023;-91
2021/11/28 12:44:19;;;;;;;8.50;4.88;;;6.80;84.50;;;;;;4967109;28;20117;-91
2021/11/28 12:46:51;;;;;;;7.28;4.82;;;6.80;84.50;;;;;;4974634;28;20022;-91
2021/11/28 12:49:33;;;;;;;7.65;5.03;;;6.80;84.40;;;;;;4972563;28;20063;-92
2021/11/28 12:52:22;;;;;;;6.63;4.27;;;6.80;84.40;;;;;;4971949;28;20050;-92
2021/11/28 12:55:07;;;;;;;4.15;2.95;;;6.80;84.40;;;;;;4967557;28;20278;-93
2021/11/28 12:57:45;;;;;;;2.97;2.03;;;6.70;84.50;;;;;;4975247;28;20037;-91
2021/11/28 13:00:18;;;;;;;2.92;2.05;;;6.60;84.50;;;;;;4971478;28;20493;-92